sensor_id;sensor_type;location;lat;lon;timestamp;temperature;humidity
22996;DHT22;11664;49.774;8.650;2023-04-06T00:01:10;2.60;99.90
22996;DHT22;11664;49.774;8.650;2023-04-06T00:03:35;2.50;99.90
22996;DHT22;11664;49.774;8.650;2023-04-06T00:06:01;2.50;99.90
22996;DHT22;11664;49.774;8.650;2023-04-06T00:08:27;2.50;99.90
22996;DHT22;11664;49.774;8.650;2023-04-06T00:10:52;2.50;99.90
22996;DHT22;11664;49.774;8.650;2023-04-06T00:13:18;2.50;99.90
22996;DHT22;11664;49.774;8.650;2023-04-06T00:15:47;2.60;99.90
22996;DHT22;11664;49.774;8.650;2023-04-06T00:18:12;2.60;99.90
22996;DHT22;11664;49.774;8.650;2023-04-06T00:20:38;2.70;99.90
22996;DHT22;11664;49.774;8.650;2023-04-06T00:23:09;2.80;99.90
22996;DHT22;11664;49.774;8.650;2023-04-06T00:25:38;2.70;99.90
22996;DHT22;11664;49.774;8.650;2023-04-06T00:28:04;2.80;99.90
22996;DHT22;11664;49.774;8.650;2023-04-06T00:30:29;2.80;99.90
22996;DHT22;11664;49.774;8.650;2023-04-06T00:32:55;2.70;99.90
22996;DHT22;11664;49.774;8.650;2023-04-06T00:35:21;2.70;99.90
22996;DHT22;11664;49.774;8.650;2023-04-06T00:37:52;2.70;99.90
22996;DHT22;11664;49.774;8.650;2023-04-06T00:40:21;2.80;99.90
22996;DHT22;11664;49.774;8.650;2023-04-06T00:42:46;2.80;99.90
22996;DHT22;11664;49.774;8.650;2023-04-06T00:45:15;2.80;99.90
22996;DHT22;11664;49.774;8.650;2023-04-06T00:47:44;2.80;99.90
22996;DHT22;11664;49.774;8.650;2023-04-06T00:50:09;2.80;99.90
22996;DHT22;11664;49.774;8.650;2023-04-06T00:52:38;2.80;99.90
22996;DHT22;11664;49.774;8.650;2023-04-06T00:55:07;2.80;99.90
22996;DHT22;11664;49.774;8.650;2023-04-06T00:57:35;2.90;99.90
22996;DHT22;11664;49.774;8.650;2023-04-06T01:00:04;2.90;99.90
22996;DHT22;11664;49.774;8.650;2023-04-06T01:02:30;2.80;99.90
22996;DHT22;11664;49.774;8.650;2023-04-06T01:05:02;2.80;99.90
22996;DHT22;11664;49.774;8.650;2023-04-06T01:11:02;2.70;99.90
22996;DHT22;11664;49.774;8.650;2023-04-06T01:13:27;2.70;99.90
22996;DHT22;11664;49.774;8.650;2023-04-06T01:15:56;2.70;99.90
22996;DHT22;11664;49.774;8.650;2023-04-06T01:18:34;2.60;99.90
22996;DHT22;11664;49.774;8.650;2023-04-06T01:21:09;2.60;99.90
22996;DHT22;11664;49.774;8.650;2023-04-06T01:23:49;2.60;99.90
22996;DHT22;11664;49.774;8.650;2023-04-06T01:26:18;2.50;99.90
22996;DHT22;11664;49.774;8.650;2023-04-06T01:28:50;2.50;99.90
22996;DHT22;11664;49.774;8.650;2023-04-06T01:31:15;2.50;99.90
22996;DHT22;11664;49.774;8.650;2023-04-06T01:33:47;2.40;99.90
22996;DHT22;11664;49.774;8.650;2023-04-06T01:36:16;2.30;99.90
22996;DHT22;11664;49.774;8.650;2023-04-06T01:38:51;2.20;99.90
22996;DHT22;11664;49.774;8.650;2023-04-06T01:41:22;2.20;99.90
22996;DHT22;11664;49.774;8.650;2023-04-06T01:43:48;2.10;99.90
22996;DHT22;11664;49.774;8.650;2023-04-06T01:46:20;2.10;99.90
22996;DHT22;11664;49.774;8.650;2023-04-06T01:48:46;2.10;99.90
22996;DHT22;11664;49.774;8.650;2023-04-06T01:51:14;2.10;99.90
22996;DHT22;11664;49.774;8.650;2023-04-06T01:53:40;2.20;99.90
22996;DHT22;11664;49.774;8.650;2023-04-06T01:56:09;2.20;99.90
22996;DHT22;11664;49.774;8.650;2023-04-06T01:58:35;2.10;99.90
22996;DHT22;11664;49.774;8.650;2023-04-06T02:01:04;2.10;99.90
22996;DHT22;11664;49.774;8.650;2023-04-06T02:03:29;2.00;99.90
22996;DHT22;11664;49.774;8.650;2023-04-06T02:06:02;2.00;99.90
22996;DHT22;11664;49.774;8.650;2023-04-06T02:08:28;2.00;99.90
22996;DHT22;11664;49.774;8.650;2023-04-06T02:10:54;2.00;99.90
22996;DHT22;11664;49.774;8.650;2023-04-06T02:13:26;2.00;99.90
22996;DHT22;11664;49.774;8.650;2023-04-06T02:15:51;2.00;99.90
22996;DHT22;11664;49.774;8.650;2023-04-06T02:18:17;2.00;99.90
22996;DHT22;11664;49.774;8.650;2023-04-06T02:20:49;2.00;99.90
22996;DHT22;11664;49.774;8.650;2023-04-06T02:23:18;2.00;99.90
22996;DHT22;11664;49.774;8.650;2023-04-06T02:25:49;2.00;99.90
22996;DHT22;11664;49.774;8.650;2023-04-06T02:28:18;1.90;99.90
22996;DHT22;11664;49.774;8.650;2023-04-06T02:30:47;1.80;99.90
22996;DHT22;11664;49.774;8.650;2023-04-06T02:33:15;1.80;99.90
22996;DHT22;11664;49.774;8.650;2023-04-06T02:36:12;1.80;99.90
22996;DHT22;11664;49.774;8.650;2023-04-06T02:38:43;1.80;99.90
22996;DHT22;11664;49.774;8.650;2023-04-06T02:41:09;1.80;99.90
22996;DHT22;11664;49.774;8.650;2023-04-06T02:43:35;1.90;99.90
22996;DHT22;11664;49.774;8.650;2023-04-06T02:46:00;1.80;99.90
22996;DHT22;11664;49.774;8.650;2023-04-06T02:48:26;1.80;99.90
22996;DHT22;11664;49.774;8.650;2023-04-06T02:50:51;1.70;99.90
22996;DHT22;11664;49.774;8.650;2023-04-06T02:53:19;1.70;99.90
22996;DHT22;11664;49.774;8.650;2023-04-06T02:55:44;1.60;99.90
22996;DHT22;11664;49.774;8.650;2023-04-06T02:58:16;1.50;99.90
22996;DHT22;11664;49.774;8.650;2023-04-06T03:00:41;1.40;99.90
22996;DHT22;11664;49.774;8.650;2023-04-06T03:03:07;1.40;99.90
22996;DHT22;11664;49.774;8.650;2023-04-06T03:05:39;1.40;99.90
22996;DHT22;11664;49.774;8.650;2023-04-06T03:08:08;1.30;99.90
22996;DHT22;11664;49.774;8.650;2023-04-06T03:10:36;1.30;99.90
22996;DHT22;11664;49.774;8.650;2023-04-06T03:13:08;1.30;99.90
22996;DHT22;11664;49.774;8.650;2023-04-06T03:15:33;1.30;99.90
22996;DHT22;11664;49.774;8.650;2023-04-06T03:18:24;1.30;99.90
22996;DHT22;11664;49.774;8.650;2023-04-06T03:20:51;1.30;99.90
22996;DHT22;11664;49.774;8.650;2023-04-06T03:23:19;1.30;99.90
22996;DHT22;11664;49.774;8.650;2023-04-06T03:25:52;1.30;99.90
22996;DHT22;11664;49.774;8.650;2023-04-06T03:28:17;1.30;99.90
22996;DHT22;11664;49.774;8.650;2023-04-06T03:30:46;1.40;99.90
22996;DHT22;11664;49.774;8.650;2023-04-06T03:33:17;1.40;99.90
22996;DHT22;11664;49.774;8.650;2023-04-06T03:35:43;1.30;99.90
22996;DHT22;11664;49.774;8.650;2023-04-06T03:38:08;1.30;99.90
22996;DHT22;11664;49.774;8.650;2023-04-06T03:40:43;1.30;99.90
22996;DHT22;11664;49.774;8.650;2023-04-06T03:43:14;1.30;99.90
22996;DHT22;11664;49.774;8.650;2023-04-06T03:45:43;1.30;99.90
22996;DHT22;11664;49.774;8.650;2023-04-06T03:48:18;1.30;99.90
22996;DHT22;11664;49.774;8.650;2023-04-06T03:50:49;1.30;99.90
22996;DHT22;11664;49.774;8.650;2023-04-06T03:53:16;1.30;99.90
22996;DHT22;11664;49.774;8.650;2023-04-06T03:55:41;1.30;99.90
22996;DHT22;11664;49.774;8.650;2023-04-06T03:58:07;1.20;99.90
22996;DHT22;11664;49.774;8.650;2023-04-06T04:00:35;1.30;99.90
22996;DHT22;11664;49.774;8.650;2023-04-06T04:03:04;1.30;99.90
22996;DHT22;11664;49.774;8.650;2023-04-06T04:05:48;1.40;99.90
22996;DHT22;11664;49.774;8.650;2023-04-06T04:08:21;1.40;99.90
22996;DHT22;11664;49.774;8.650;2023-04-06T04:10:56;1.40;99.90
22996;DHT22;11664;49.774;8.650;2023-04-06T04:13:21;1.30;99.90
22996;DHT22;11664;49.774;8.650;2023-04-06T04:15:47;1.30;99.90
22996;DHT22;11664;49.774;8.650;2023-04-06T04:18:15;1.30;99.90
22996;DHT22;11664;49.774;8.650;2023-04-06T04:20:41;1.20;99.90
22996;DHT22;11664;49.774;8.650;2023-04-06T04:23:10;1.20;99.90
22996;DHT22;11664;49.774;8.650;2023-04-06T04:25:35;1.20;99.90
22996;DHT22;11664;49.774;8.650;2023-04-06T04:28:07;1.20;99.90
22996;DHT22;11664;49.774;8.650;2023-04-06T04:30:38;1.20;99.90
22996;DHT22;11664;49.774;8.650;2023-04-06T04:33:11;1.10;99.90
22996;DHT22;11664;49.774;8.650;2023-04-06T04:35:46;1.00;99.90
22996;DHT22;11664;49.774;8.650;2023-04-06T04:38:14;1.00;99.90
22996;DHT22;11664;49.774;8.650;2023-04-06T04:40:40;0.90;99.90
22996;DHT22;11664;49.774;8.650;2023-04-06T04:43:11;0.90;99.90
22996;DHT22;11664;49.774;8.650;2023-04-06T04:45:37;1.00;99.90
22996;DHT22;11664;49.774;8.650;2023-04-06T04:48:12;1.00;99.90
22996;DHT22;11664;49.774;8.650;2023-04-06T04:50:37;1.10;99.90
22996;DHT22;11664;49.774;8.650;2023-04-06T04:53:03;1.20;99.90
22996;DHT22;11664;49.774;8.650;2023-04-06T04:55:50;1.20;99.90
22996;DHT22;11664;49.774;8.650;2023-04-06T04:58:15;1.30;99.90
22996;DHT22;11664;49.774;8.650;2023-04-06T05:00:51;1.30;99.90
22996;DHT22;11664;49.774;8.650;2023-04-06T05:03:24;1.20;99.90
22996;DHT22;11664;49.774;8.650;2023-04-06T05:05:57;1.20;99.90
22996;DHT22;11664;49.774;8.650;2023-04-06T05:08:22;1.20;99.90
22996;DHT22;11664;49.774;8.650;2023-04-06T05:10:51;1.20;99.90
22996;DHT22;11664;49.774;8.650;2023-04-06T05:13:19;1.20;99.90
22996;DHT22;11664;49.774;8.650;2023-04-06T05:15:45;1.20;99.90
22996;DHT22;11664;49.774;8.650;2023-04-06T05:18:22;1.20;99.90
22996;DHT22;11664;49.774;8.650;2023-04-06T05:20:48;1.20;99.90
22996;DHT22;11664;49.774;8.650;2023-04-06T05:23:15;1.20;99.90
22996;DHT22;11664;49.774;8.650;2023-04-06T05:25:40;1.20;99.90
22996;DHT22;11664;49.774;8.650;2023-04-06T05:28:09;1.10;99.90
22996;DHT22;11664;49.774;8.650;2023-04-06T05:31:06;1.10;99.90
22996;DHT22;11664;49.774;8.650;2023-04-06T05:33:37;1.20;99.90
22996;DHT22;11664;49.774;8.650;2023-04-06T05:36:12;1.10;99.90
22996;DHT22;11664;49.774;8.650;2023-04-06T05:38:38;1.10;99.90
22996;DHT22;11664;49.774;8.650;2023-04-06T05:41:09;1.10;99.90
22996;DHT22;11664;49.774;8.650;2023-04-06T05:43:41;1.30;99.90
22996;DHT22;11664;49.774;8.650;2023-04-06T05:46:10;1.30;99.90
22996;DHT22;11664;49.774;8.650;2023-04-06T05:48:39;1.30;99.90
22996;DHT22;11664;49.774;8.650;2023-04-06T05:51:04;1.30;99.90
22996;DHT22;11664;49.774;8.650;2023-04-06T05:53:45;1.30;99.90
22996;DHT22;11664;49.774;8.650;2023-04-06T05:56:17;1.30;99.90
22996;DHT22;11664;49.774;8.650;2023-04-06T05:58:46;1.30;99.90
22996;DHT22;11664;49.774;8.650;2023-04-06T06:01:14;1.40;99.90
22996;DHT22;11664;49.774;8.650;2023-04-06T06:03:40;1.50;99.90
22996;DHT22;11664;49.774;8.650;2023-04-06T06:06:09;1.50;99.90
22996;DHT22;11664;49.774;8.650;2023-04-06T06:09:02;1.50;99.90
22996;DHT22;11664;49.774;8.650;2023-04-06T06:11:29;1.50;99.90
22996;DHT22;11664;49.774;8.650;2023-04-06T06:13:58;1.60;99.90
22996;DHT22;11664;49.774;8.650;2023-04-06T06:16:23;1.60;99.90
22996;DHT22;11664;49.774;8.650;2023-04-06T06:18:49;1.60;99.90
22996;DHT22;11664;49.774;8.650;2023-04-06T06:21:14;1.70;99.90
22996;DHT22;11664;49.774;8.650;2023-04-06T06:23:51;1.70;99.90
22996;DHT22;11664;49.774;8.650;2023-04-06T06:26:16;1.70;99.90
22996;DHT22;11664;49.774;8.650;2023-04-06T06:28:48;1.80;99.90
22996;DHT22;11664;49.774;8.650;2023-04-06T06:31:16;1.90;99.90
22996;DHT22;11664;49.774;8.650;2023-04-06T06:33:52;2.00;99.90
22996;DHT22;11664;49.774;8.650;2023-04-06T06:36:18;2.10;99.90
22996;DHT22;11664;49.774;8.650;2023-04-06T06:38:50;2.30;99.90
22996;DHT22;11664;49.774;8.650;2023-04-06T06:41:33;2.40;99.90
22996;DHT22;11664;49.774;8.650;2023-04-06T06:44:04;2.50;99.90
22996;DHT22;11664;49.774;8.650;2023-04-06T06:46:45;2.70;99.90
22996;DHT22;11664;49.774;8.650;2023-04-06T06:49:14;2.90;99.90
22996;DHT22;11664;49.774;8.650;2023-04-06T06:51:40;3.00;99.90
22996;DHT22;11664;49.774;8.650;2023-04-06T06:54:09;3.00;99.90
22996;DHT22;11664;49.774;8.650;2023-04-06T06:56:37;3.10;99.90
22996;DHT22;11664;49.774;8.650;2023-04-06T06:59:04;3.20;99.90
22996;DHT22;11664;49.774;8.650;2023-04-06T07:01:37;3.30;99.90
22996;DHT22;11664;49.774;8.650;2023-04-06T07:04:02;3.40;99.90
22996;DHT22;11664;49.774;8.650;2023-04-06T07:06:28;3.60;99.90
22996;DHT22;11664;49.774;8.650;2023-04-06T07:08:53;3.70;99.90
22996;DHT22;11664;49.774;8.650;2023-04-06T07:11:19;3.80;99.90
22996;DHT22;11664;49.774;8.650;2023-04-06T07:13:45;3.90;99.90
22996;DHT22;11664;49.774;8.650;2023-04-06T07:16:13;4.00;99.90
22996;DHT22;11664;49.774;8.650;2023-04-06T07:18:39;4.10;99.90
22996;DHT22;11664;49.774;8.650;2023-04-06T07:21:05;4.20;99.90
22996;DHT22;11664;49.774;8.650;2023-04-06T07:23:30;4.30;99.90
22996;DHT22;11664;49.774;8.650;2023-04-06T07:25:56;4.40;99.90
22996;DHT22;11664;49.774;8.650;2023-04-06T07:28:24;4.50;99.90
22996;DHT22;11664;49.774;8.650;2023-04-06T07:30:50;4.60;99.90
22996;DHT22;11664;49.774;8.650;2023-04-06T07:33:16;4.80;99.90
22996;DHT22;11664;49.774;8.650;2023-04-06T07:35:45;4.90;99.90
22996;DHT22;11664;49.774;8.650;2023-04-06T07:38:16;5.00;99.90
22996;DHT22;11664;49.774;8.650;2023-04-06T07:44:01;5.20;99.90
22996;DHT22;11664;49.774;8.650;2023-04-06T07:46:34;5.40;99.90
22996;DHT22;11664;49.774;8.650;2023-04-06T07:49:04;5.50;99.90
22996;DHT22;11664;49.774;8.650;2023-04-06T07:51:39;5.60;99.90
22996;DHT22;11664;49.774;8.650;2023-04-06T07:54:05;5.80;99.90
22996;DHT22;11664;49.774;8.650;2023-04-06T07:56:31;5.90;99.90
22996;DHT22;11664;49.774;8.650;2023-04-06T07:59:02;6.10;99.90
22996;DHT22;11664;49.774;8.650;2023-04-06T08:01:40;6.20;99.90
22996;DHT22;11664;49.774;8.650;2023-04-06T08:04:06;6.40;99.90
22996;DHT22;11664;49.774;8.650;2023-04-06T08:06:34;6.50;99.90
22996;DHT22;11664;49.774;8.650;2023-04-06T08:09:03;6.70;99.90
22996;DHT22;11664;49.774;8.650;2023-04-06T08:11:29;6.80;99.90
22996;DHT22;11664;49.774;8.650;2023-04-06T08:13:54;7.00;99.90
22996;DHT22;11664;49.774;8.650;2023-04-06T08:16:22;7.10;99.90
22996;DHT22;11664;49.774;8.650;2023-04-06T08:18:50;7.30;99.90
22996;DHT22;11664;49.774;8.650;2023-04-06T08:21:19;7.40;99.90
22996;DHT22;11664;49.774;8.650;2023-04-06T08:23:51;7.60;99.90
22996;DHT22;11664;49.774;8.650;2023-04-06T08:26:28;7.70;99.90
22996;DHT22;11664;49.774;8.650;2023-04-06T08:29:03;7.80;99.90
22996;DHT22;11664;49.774;8.650;2023-04-06T08:31:30;8.00;99.90
22996;DHT22;11664;49.774;8.650;2023-04-06T08:34:04;8.10;99.90
22996;DHT22;11664;49.774;8.650;2023-04-06T08:36:33;8.20;99.90
22996;DHT22;11664;49.774;8.650;2023-04-06T08:39:05;8.40;99.90
22996;DHT22;11664;49.774;8.650;2023-04-06T08:41:34;8.50;99.70
22996;DHT22;11664;49.774;8.650;2023-04-06T08:44:04;8.60;98.80
22996;DHT22;11664;49.774;8.650;2023-04-06T08:46:30;8.80;98.60
22996;DHT22;11664;49.774;8.650;2023-04-06T08:49:01;8.90;98.00
22996;DHT22;11664;49.774;8.650;2023-04-06T08:51:42;8.90;97.10
22996;DHT22;11664;49.774;8.650;2023-04-06T08:54:08;9.10;96.30
22996;DHT22;11664;49.774;8.650;2023-04-06T08:56:40;9.20;95.80
22996;DHT22;11664;49.774;8.650;2023-04-06T08:59:09;9.30;96.70
22996;DHT22;11664;49.774;8.650;2023-04-06T09:01:40;9.20;97.10
22996;DHT22;11664;49.774;8.650;2023-04-06T09:04:08;9.30;97.00
22996;DHT22;11664;49.774;8.650;2023-04-06T09:06:37;9.30;96.80
22996;DHT22;11664;49.774;8.650;2023-04-06T09:09:12;9.40;96.20
22996;DHT22;11664;49.774;8.650;2023-04-06T09:11:47;9.50;94.90
22996;DHT22;11664;49.774;8.650;2023-04-06T09:14:16;9.70;95.50
22996;DHT22;11664;49.774;8.650;2023-04-06T09:16:44;9.80;95.00
22996;DHT22;11664;49.774;8.650;2023-04-06T09:19:11;9.90;94.30
22996;DHT22;11664;49.774;8.650;2023-04-06T09:21:40;10.00;95.00
22996;DHT22;11664;49.774;8.650;2023-04-06T09:24:07;10.20;95.20
22996;DHT22;11664;49.774;8.650;2023-04-06T09:26:59;10.30;94.00
22996;DHT22;11664;49.774;8.650;2023-04-06T09:29:26;10.40;94.20
22996;DHT22;11664;49.774;8.650;2023-04-06T09:34:42;10.60;93.20
22996;DHT22;11664;49.774;8.650;2023-04-06T09:37:20;10.70;92.90
22996;DHT22;11664;49.774;8.650;2023-04-06T09:39:46;10.80;92.50
22996;DHT22;11664;49.774;8.650;2023-04-06T09:42:26;10.80;92.00
22996;DHT22;11664;49.774;8.650;2023-04-06T09:44:58;11.00;91.70
22996;DHT22;11664;49.774;8.650;2023-04-06T09:47:24;11.10;91.70
22996;DHT22;11664;49.774;8.650;2023-04-06T09:49:56;11.30;91.70
22996;DHT22;11664;49.774;8.650;2023-04-06T09:52:26;11.40;90.60
22996;DHT22;11664;49.774;8.650;2023-04-06T09:55:08;11.40;91.10
22996;DHT22;11664;49.774;8.650;2023-04-06T09:57:45;11.60;91.00
22996;DHT22;11664;49.774;8.650;2023-04-06T10:00:17;11.50;90.40
22996;DHT22;11664;49.774;8.650;2023-04-06T10:03:21;11.70;90.80
22996;DHT22;11664;49.774;8.650;2023-04-06T10:05:55;11.90;89.00
22996;DHT22;11664;49.774;8.650;2023-04-06T10:08:26;11.90;86.80
22996;DHT22;11664;49.774;8.650;2023-04-06T10:11:12;12.00;86.90
22996;DHT22;11664;49.774;8.650;2023-04-06T10:13:37;11.90;86.20
22996;DHT22;11664;49.774;8.650;2023-04-06T10:16:06;12.10;85.10
22996;DHT22;11664;49.774;8.650;2023-04-06T10:18:46;12.20;83.90
22996;DHT22;11664;49.774;8.650;2023-04-06T10:21:15;12.20;82.10
22996;DHT22;11664;49.774;8.650;2023-04-06T10:23:49;12.30;84.10
22996;DHT22;11664;49.774;8.650;2023-04-06T10:26:21;12.50;84.20
22996;DHT22;11664;49.774;8.650;2023-04-06T10:29:04;12.80;81.50
22996;DHT22;11664;49.774;8.650;2023-04-06T10:31:41;13.00;79.90
22996;DHT22;11664;49.774;8.650;2023-04-06T10:34:08;13.10;79.70
22996;DHT22;11664;49.774;8.650;2023-04-06T10:36:40;13.20;79.30
22996;DHT22;11664;49.774;8.650;2023-04-06T10:39:11;13.40;79.10
22996;DHT22;11664;49.774;8.650;2023-04-06T10:41:52;13.60;77.20
22996;DHT22;11664;49.774;8.650;2023-04-06T10:44:27;13.70;77.10
22996;DHT22;11664;49.774;8.650;2023-04-06T10:46:57;14.00;78.00
22996;DHT22;11664;49.774;8.650;2023-04-06T10:49:31;14.00;78.90
22996;DHT22;11664;49.774;8.650;2023-04-06T10:52:09;13.90;76.60
22996;DHT22;11664;49.774;8.650;2023-04-06T10:54:44;14.00;74.60
22996;DHT22;11664;49.774;8.650;2023-04-06T10:57:13;13.90;75.00
22996;DHT22;11664;49.774;8.650;2023-04-06T10:59:53;13.90;73.70
22996;DHT22;11664;49.774;8.650;2023-04-06T11:02:19;14.10;77.20
22996;DHT22;11664;49.774;8.650;2023-04-06T11:05:05;14.40;75.40
22996;DHT22;11664;49.774;8.650;2023-04-06T11:07:44;14.90;75.40
22996;DHT22;11664;49.774;8.650;2023-04-06T11:10:21;15.00;74.50
22996;DHT22;11664;49.774;8.650;2023-04-06T11:12:54;15.10;73.30
22996;DHT22;11664;49.774;8.650;2023-04-06T11:15:34;15.20;73.30
22996;DHT22;11664;49.774;8.650;2023-04-06T11:18:04;15.20;73.80
22996;DHT22;11664;49.774;8.650;2023-04-06T11:20:33;15.50;71.00
22996;DHT22;11664;49.774;8.650;2023-04-06T11:22:59;15.60;70.20
22996;DHT22;11664;49.774;8.650;2023-04-06T11:25:28;15.80;71.00
22996;DHT22;11664;49.774;8.650;2023-04-06T11:28:07;16.10;69.50
22996;DHT22;11664;49.774;8.650;2023-04-06T11:30:39;16.50;68.10
22996;DHT22;11664;49.774;8.650;2023-04-06T11:33:08;16.70;65.70
22996;DHT22;11664;49.774;8.650;2023-04-06T11:35:33;16.90;65.80
22996;DHT22;11664;49.774;8.650;2023-04-06T11:38:08;16.90;63.60
22996;DHT22;11664;49.774;8.650;2023-04-06T11:40:34;16.60;60.10
22996;DHT22;11664;49.774;8.650;2023-04-06T11:43:04;16.00;60.80
22996;DHT22;11664;49.774;8.650;2023-04-06T11:45:40;15.90;62.10
22996;DHT22;11664;49.774;8.650;2023-04-06T11:48:06;15.90;64.00
22996;DHT22;11664;49.774;8.650;2023-04-06T11:53:46;15.90;60.90
22996;DHT22;11664;49.774;8.650;2023-04-06T11:56:30;15.90;61.80
22996;DHT22;11664;49.774;8.650;2023-04-06T11:58:58;16.00;63.60
22996;DHT22;11664;49.774;8.650;2023-04-06T12:01:25;15.80;63.50
22996;DHT22;11664;49.774;8.650;2023-04-06T12:04:09;15.80;64.30
22996;DHT22;11664;49.774;8.650;2023-04-06T12:06:38;16.00;65.40
22996;DHT22;11664;49.774;8.650;2023-04-06T12:09:09;15.90;62.10
22996;DHT22;11664;49.774;8.650;2023-04-06T12:11:53;16.20;63.60
22996;DHT22;11664;49.774;8.650;2023-04-06T12:14:40;16.60;65.10
22996;DHT22;11664;49.774;8.650;2023-04-06T12:17:06;17.10;64.30
22996;DHT22;11664;49.774;8.650;2023-04-06T12:19:31;17.40;61.10
22996;DHT22;11664;49.774;8.650;2023-04-06T12:22:03;17.40;58.40
22996;DHT22;11664;49.774;8.650;2023-04-06T12:24:34;17.70;60.00
22996;DHT22;11664;49.774;8.650;2023-04-06T12:27:00;17.60;57.40
22996;DHT22;11664;49.774;8.650;2023-04-06T12:29:26;17.90;60.00
22996;DHT22;11664;49.774;8.650;2023-04-06T12:31:58;18.30;58.90
22996;DHT22;11664;49.774;8.650;2023-04-06T12:34:34;18.10;56.10
22996;DHT22;11664;49.774;8.650;2023-04-06T12:37:12;17.90;56.20
22996;DHT22;11664;49.774;8.650;2023-04-06T12:39:40;17.70;58.40
22996;DHT22;11664;49.774;8.650;2023-04-06T12:42:06;17.50;59.90
22996;DHT22;11664;49.774;8.650;2023-04-06T12:44:44;17.40;59.10
22996;DHT22;11664;49.774;8.650;2023-04-06T12:47:13;17.40;57.90
22996;DHT22;11664;49.774;8.650;2023-04-06T12:49:41;17.70;59.80
22996;DHT22;11664;49.774;8.650;2023-04-06T12:52:11;17.80;57.70
22996;DHT22;11664;49.774;8.650;2023-04-06T12:54:52;17.80;57.30
22996;DHT22;11664;49.774;8.650;2023-04-06T12:57:21;17.60;57.20
22996;DHT22;11664;49.774;8.650;2023-04-06T12:59:50;17.80;58.10
22996;DHT22;11664;49.774;8.650;2023-04-06T13:02:16;17.80;56.70
22996;DHT22;11664;49.774;8.650;2023-04-06T13:04:51;18.10;58.20
22996;DHT22;11664;49.774;8.650;2023-04-06T13:07:20;17.90;56.40
22996;DHT22;11664;49.774;8.650;2023-04-06T13:09:54;17.80;55.60
22996;DHT22;11664;49.774;8.650;2023-04-06T13:12:20;17.70;56.10
22996;DHT22;11664;49.774;8.650;2023-04-06T13:14:45;17.80;57.70
22996;DHT22;11664;49.774;8.650;2023-04-06T13:17:19;18.00;55.90
22996;DHT22;11664;49.774;8.650;2023-04-06T13:19:49;17.70;54.00
22996;DHT22;11664;49.774;8.650;2023-04-06T13:22:14;17.70;56.70
22996;DHT22;11664;49.774;8.650;2023-04-06T13:24:43;17.80;55.80
22996;DHT22;11664;49.774;8.650;2023-04-06T13:27:08;18.40;58.30
22996;DHT22;11664;49.774;8.650;2023-04-06T13:29:49;18.30;52.90
22996;DHT22;11664;49.774;8.650;2023-04-06T13:32:15;18.30;53.40
22996;DHT22;11664;49.774;8.650;2023-04-06T13:34:44;18.20;54.30
22996;DHT22;11664;49.774;8.650;2023-04-06T13:37:12;18.10;55.40
22996;DHT22;11664;49.774;8.650;2023-04-06T13:39:47;18.00;54.10
22996;DHT22;11664;49.774;8.650;2023-04-06T13:42:19;17.80;54.40
22996;DHT22;11664;49.774;8.650;2023-04-06T13:44:44;18.00;57.30
22996;DHT22;11664;49.774;8.650;2023-04-06T13:47:12;18.20;57.70
22996;DHT22;11664;49.774;8.650;2023-04-06T13:49:50;18.30;58.50
22996;DHT22;11664;49.774;8.650;2023-04-06T13:52:16;18.30;54.70
22996;DHT22;11664;49.774;8.650;2023-04-06T13:54:42;18.30;54.40
22996;DHT22;11664;49.774;8.650;2023-04-06T13:57:10;18.10;55.00
22996;DHT22;11664;49.774;8.650;2023-04-06T13:59:36;17.90;53.90
22996;DHT22;11664;49.774;8.650;2023-04-06T14:02:09;17.80;55.90
22996;DHT22;11664;49.774;8.650;2023-04-06T14:04:47;17.50;54.20
22996;DHT22;11664;49.774;8.650;2023-04-06T14:07:22;17.00;55.10
22996;DHT22;11664;49.774;8.650;2023-04-06T14:09:51;16.90;57.30
22996;DHT22;11664;49.774;8.650;2023-04-06T14:12:23;17.10;58.30
22996;DHT22;11664;49.774;8.650;2023-04-06T14:14:52;17.20;55.30
22996;DHT22;11664;49.774;8.650;2023-04-06T14:17:23;17.10;55.90
22996;DHT22;11664;49.774;8.650;2023-04-06T14:19:58;17.10;55.80
22996;DHT22;11664;49.774;8.650;2023-04-06T14:22:23;16.90;56.70
22996;DHT22;11664;49.774;8.650;2023-04-06T14:24:58;16.80;56.30
22996;DHT22;11664;49.774;8.650;2023-04-06T14:27:24;16.50;56.60
22996;DHT22;11664;49.774;8.650;2023-04-06T14:30:03;16.50;57.60
22996;DHT22;11664;49.774;8.650;2023-04-06T14:32:50;16.40;58.30
22996;DHT22;11664;49.774;8.650;2023-04-06T14:35:15;16.30;56.60
22996;DHT22;11664;49.774;8.650;2023-04-06T14:37:53;16.30;57.70
22996;DHT22;11664;49.774;8.650;2023-04-06T14:40:22;16.20;56.60
22996;DHT22;11664;49.774;8.650;2023-04-06T14:42:49;16.00;56.90
22996;DHT22;11664;49.774;8.650;2023-04-06T14:45:27;16.00;58.30
22996;DHT22;11664;49.774;8.650;2023-04-06T14:47:59;16.10;59.10
22996;DHT22;11664;49.774;8.650;2023-04-06T14:50:52;16.20;58.00
22996;DHT22;11664;49.774;8.650;2023-04-06T14:53:30;16.30;56.90
22996;DHT22;11664;49.774;8.650;2023-04-06T14:56:02;16.40;58.50
22996;DHT22;11664;49.774;8.650;2023-04-06T14:58:53;16.40;58.10
22996;DHT22;11664;49.774;8.650;2023-04-06T15:01:19;16.30;58.60
22996;DHT22;11664;49.774;8.650;2023-04-06T15:03:51;16.20;59.40
22996;DHT22;11664;49.774;8.650;2023-04-06T15:06:18;16.10;57.20
22996;DHT22;11664;49.774;8.650;2023-04-06T15:08:53;16.00;57.50
22996;DHT22;11664;49.774;8.650;2023-04-06T15:11:21;15.90;58.10
22996;DHT22;11664;49.774;8.650;2023-04-06T15:13:50;15.60;56.80
22996;DHT22;11664;49.774;8.650;2023-04-06T15:16:19;15.40;57.40
22996;DHT22;11664;49.774;8.650;2023-04-06T15:18:44;15.30;58.00
22996;DHT22;11664;49.774;8.650;2023-04-06T15:21:13;15.20;58.00
22996;DHT22;11664;49.774;8.650;2023-04-06T15:23:42;15.20;57.30
22996;DHT22;11664;49.774;8.650;2023-04-06T15:26:17;15.20;58.40
22996;DHT22;11664;49.774;8.650;2023-04-06T15:28:48;15.30;57.40
22996;DHT22;11664;49.774;8.650;2023-04-06T15:31:23;15.20;58.60
22996;DHT22;11664;49.774;8.650;2023-04-06T15:34:14;15.10;56.80
22996;DHT22;11664;49.774;8.650;2023-04-06T15:36:52;14.90;56.80
22996;DHT22;11664;49.774;8.650;2023-04-06T15:39:24;14.80;57.90
22996;DHT22;11664;49.774;8.650;2023-04-06T15:41:49;14.70;58.40
22996;DHT22;11664;49.774;8.650;2023-04-06T15:44:15;14.60;58.10
22996;DHT22;11664;49.774;8.650;2023-04-06T15:46:41;14.50;58.00
22996;DHT22;11664;49.774;8.650;2023-04-06T15:49:10;14.40;58.60
22996;DHT22;11664;49.774;8.650;2023-04-06T15:51:36;14.30;58.10
22996;DHT22;11664;49.774;8.650;2023-04-06T15:54:01;14.20;59.60
22996;DHT22;11664;49.774;8.650;2023-04-06T15:56:33;14.10;58.50
22996;DHT22;11664;49.774;8.650;2023-04-06T15:58:59;14.00;58.50
22996;DHT22;11664;49.774;8.650;2023-04-06T16:01:24;14.00;58.80
22996;DHT22;11664;49.774;8.650;2023-04-06T16:03:50;13.90;60.30
22996;DHT22;11664;49.774;8.650;2023-04-06T16:06:16;13.80;59.50
22996;DHT22;11664;49.774;8.650;2023-04-06T16:08:45;13.90;60.10
22996;DHT22;11664;49.774;8.650;2023-04-06T16:11:20;13.90;60.10
22996;DHT22;11664;49.774;8.650;2023-04-06T16:13:58;13.80;60.40